Time;durP1;ratioP1;P1;durP2;ratioP2;P2;SDS_P1;SDS_P2;PMS_P1;PMS_P2;Temp;Humidity;BMP_temperature;BMP_pressure;BME280_temperature;BME280_humidity;BME280_pressure;Samples;Min_cycle;Max_cycle;Signal;HPM_P1;HPM_P2
2020/12/23 00:00:12;;;;;;;2.40;2.20;;;19.20;27.00;;;;;;5117810;28;20161;-59
2020/12/23 00:02:38;;;;;;;1.83;1.73;;;19.20;27.00;;;;;;5117716;28;20179;-60
2020/12/23 00:05:10;;;;;;;2.25;1.55;;;19.20;27.00;;;;;;5117724;28;20178;-60
2020/12/23 00:07:36;;;;;;;2.15;1.95;;;19.20;27.00;;;;;;5117096;28;20167;-59
2020/12/23 00:10:04;;;;;;;1.90;1.80;;;19.20;27.00;;;;;;5117621;28;20182;-60
2020/12/23 00:12:30;;;;;;;2.00;1.80;;;19.20;27.00;;;;;;5117738;28;20157;-59
2020/12/23 00:14:55;;;;;;;1.70;1.60;;;19.20;27.00;;;;;;5117780;28;20189;-59
2020/12/23 00:17:21;;;;;;;2.67;1.90;;;19.20;27.00;;;;;;5117516;28;20188;-59
2020/12/23 00:19:47;;;;;;;3.17;2.37;;;19.20;27.00;;;;;;5117606;28;20161;-59
2020/12/23 00:22:14;;;;;;;2.30;2.05;;;19.20;27.00;;;;;;5116880;28;20206;-59
2020/12/23 00:24:41;;;;;;;2.47;2.28;;;19.20;27.00;;;;;;5117249;28;20164;-59
2020/12/23 00:27:07;;;;;;;1.95;1.85;;;19.20;27.60;;;;;;5117351;28;20164;-59
2020/12/23 00:29:32;;;;;;;1.97;1.77;;;19.20;27.60;;;;;;5099001;28;20196;-59
2020/12/23 00:31:58;;;;;;;1.93;1.50;;;19.20;27.00;;;;;;5117140;28;20161;-59
2020/12/23 00:34:24;;;;;;;1.80;1.70;;;19.20;27.00;;;;;;5117342;28;20157;-59
2020/12/23 00:36:56;;;;;;;2.40;2.20;;;19.20;27.00;;;;;;5117189;28;20149;-59
2020/12/23 00:39:22;;;;;;;1.70;1.60;;;19.20;27.00;;;;;;5116996;28;20150;-60
2020/12/23 00:41:48;;;;;;;1.70;1.60;;;19.20;27.00;;;;;;5117098;28;20165;-60
2020/12/23 00:44:15;;;;;;;2.10;1.90;;;19.20;27.00;;;;;;5116848;28;20395;-60
2020/12/23 00:46:41;;;;;;;2.17;1.90;;;19.20;27.00;;;;;;5117063;28;20157;-60
2020/12/23 00:49:07;;;;;;;1.70;1.60;;;19.20;27.00;;;;;;5098645;28;20238;-60
2020/12/23 00:51:33;;;;;;;2.00;1.80;;;19.20;27.00;;;;;;5116872;28;20261;-59
2020/12/23 00:53:59;;;;;;;1.90;1.80;;;19.20;27.00;;;;;;5116286;28;20176;-59
2020/12/23 00:56:25;;;;;;;1.70;1.60;;;19.20;27.00;;;;;;5114038;28;20209;-59
2020/12/23 00:58:50;;;;;;;3.10;1.93;;;19.20;27.00;;;;;;5116633;28;20643;-59
2020/12/23 01:01:16;;;;;;;2.33;1.93;;;19.20;27.00;;;;;;5116644;28;20607;-60
2020/12/23 01:03:42;;;;;;;2.53;2.33;;;19.20;27.00;;;;;;5116532;28;20168;-60
2020/12/23 01:06:09;;;;;;;1.85;1.65;;;19.20;27.00;;;;;;5116611;28;20157;-59
2020/12/23 01:08:36;;;;;;;2.53;2.20;;;19.30;27.10;;;;;;5115968;28;20185;-59
2020/12/23 01:11:05;;;;;;;2.08;1.88;;;19.20;27.00;;;;;;5116510;28;20481;-59
2020/12/23 01:13:31;;;;;;;2.05;1.80;;;19.20;27.00;;;;;;5116472;28;20150;-59
2020/12/23 01:15:57;;;;;;;1.33;1.23;;;19.20;27.00;;;;;;5098374;28;20176;-59
2020/12/23 01:18:23;;;;;;;1.90;1.80;;;19.30;27.10;;;;;;5116412;28;20157;-59
2020/12/23 01:20:49;;;;;;;1.70;1.60;;;19.20;27.00;;;;;;5116334;28;20398;-60
2020/12/23 01:23:15;;;;;;;1.63;1.53;;;19.30;27.00;;;;;;5097379;28;20177;-59
2020/12/23 01:25:40;;;;;;;2.00;1.90;;;19.20;27.00;;;;;;5116279;28;20271;-59
2020/12/23 01:28:06;;;;;;;1.60;1.40;;;19.20;27.00;;;;;;5116098;28;20208;-59
2020/12/23 01:30:32;;;;;;;2.07;1.70;;;19.20;27.00;;;;;;5116078;28;20569;-59
2020/12/23 01:32:57;;;;;;;2.03;1.57;;;19.20;27.00;;;;;;5116170;28;20625;-59
2020/12/23 01:35:23;;;;;;;2.03;1.83;;;19.20;27.00;;;;;;5116008;28;20665;-59
2020/12/23 01:37:49;;;;;;;1.50;1.40;;;19.30;27.00;;;;;;5115452;28;20162;-59
2020/12/23 01:40:14;;;;;;;1.67;1.57;;;19.20;27.00;;;;;;5115883;28;20240;-60
2020/12/23 01:42:40;;;;;;;1.83;1.63;;;19.20;27.00;;;;;;5097916;28;20236;-59
2020/12/23 01:45:06;;;;;;;1.67;1.33;;;19.20;27.00;;;;;;5115838;28;20403;-59
2020/12/23 01:47:36;;;;;;;1.90;1.80;;;19.20;27.00;;;;;;5115897;28;20172;-59
2020/12/23 01:50:04;;;;;;;1.70;1.60;;;19.20;27.00;;;;;;5115679;28;20177;-59
2020/12/23 01:52:30;;;;;;;2.10;1.90;;;19.20;27.00;;;;;;5115037;28;20204;-59
2020/12/23 01:54:57;;;;;;;1.70;1.60;;;19.30;27.00;;;;;;5115905;28;20195;-59
2020/12/23 01:57:22;;;;;;;2.22;2.03;;;19.20;26.90;;;;;;5115940;28;20307;-59
2020/12/23 01:59:49;;;;;;;1.53;1.40;;;19.30;27.00;;;;;;5115653;28;20586;-59
2020/12/23 02:02:32;;;;;;;2.20;2.00;;;19.20;26.90;;;;;;5115393;28;20161;-59
2020/12/23 02:05:07;;;;;;;1.95;1.75;;;19.20;26.90;;;;;;5115776;28;20157;-59
2020/12/23 02:07:34;;;;;;;1.50;1.40;;;19.20;26.90;;;;;;5114280;28;20231;-60
2020/12/23 02:10:02;;;;;;;1.67;1.58;;;19.30;27.00;;;;;;5115473;28;20197;-59
2020/12/23 02:12:28;;;;;;;1.90;1.70;;;19.20;26.90;;;;;;5115698;28;20161;-59
2020/12/23 02:14:58;;;;;;;2.27;2.07;;;19.30;27.00;;;;;;5115436;28;20157;-60
2020/12/23 02:17:27;;;;;;;1.63;1.30;;;19.30;27.00;;;;;;5115387;28;20508;-61
2020/12/23 02:19:53;;;;;;;1.65;1.55;;;19.30;26.90;;;;;;5115271;28;20157;-59
2020/12/23 02:22:20;;;;;;;1.83;1.70;;;19.30;26.90;;;;;;5114326;28;20524;-59
2020/12/23 02:24:48;;;;;;;1.85;1.75;;;19.30;26.90;;;;;;5115150;28;20415;-59
2020/12/23 02:27:14;;;;;;;1.50;1.40;;;19.30;26.90;;;;;;5114896;28;20244;-59
2020/12/23 02:29:44;;;;;;;2.22;1.73;;;19.30;26.90;;;;;;5096679;28;20241;-60
2020/12/23 02:32:10;;;;;;;1.85;1.75;;;19.30;26.90;;;;;;5114857;28;20236;-59
2020/12/23 02:34:36;;;;;;;1.90;1.80;;;19.30;26.90;;;;;;5114871;28;20240;-59
2020/12/23 02:37:06;;;;;;;1.58;1.48;;;19.30;26.90;;;;;;5114099;28;20391;-59
2020/12/23 02:39:33;;;;;;;1.98;1.58;;;19.30;26.90;;;;;;5115015;28;20161;-59
2020/12/23 02:42:00;;;;;;;2.45;2.10;;;19.30;26.90;;;;;;5096819;28;20168;-59
2020/12/23 02:44:26;;;;;;;1.98;1.80;;;19.30;26.90;;;;;;5115066;28;20578;-59
2020/12/23 02:46:56;;;;;;;1.90;1.70;;;19.30;26.90;;;;;;5096453;28;20192;-59
2020/12/23 02:49:22;;;;;;;1.35;1.25;;;19.30;27.50;;;;;;5114567;28;20192;-59
2020/12/23 02:51:48;;;;;;;1.30;1.20;;;19.30;26.90;;;;;;5114482;28;20657;-59
2020/12/23 02:54:13;;;;;;;2.03;1.83;;;19.30;26.90;;;;;;5114092;28;20382;-59
2020/12/23 02:56:39;;;;;;;1.57;1.47;;;19.30;26.90;;;;;;5096262;28;20179;-59
2020/12/23 02:59:05;;;;;;;1.80;1.70;;;19.30;26.90;;;;;;5114378;28;20161;-59
2020/12/23 03:01:31;;;;;;;2.00;1.90;;;19.30;26.90;;;;;;5114485;28;20251;-59
2020/12/23 03:03:56;;;;;;;1.83;1.73;;;19.30;26.90;;;;;;5114338;28;20184;-59
2020/12/23 03:06:22;;;;;;;1.50;1.40;;;19.30;26.90;;;;;;5114295;28;20616;-59
2020/12/23 03:08:48;;;;;;;1.80;1.50;;;19.30;26.90;;;;;;5113981;28;20204;-60
2020/12/23 03:11:13;;;;;;;2.00;1.80;;;19.30;26.90;;;;;;5114309;28;20215;-59
2020/12/23 03:13:39;;;;;;;1.57;1.47;;;19.30;26.90;;;;;;5114321;28;20179;-60
2020/12/23 03:16:04;;;;;;;1.63;1.53;;;19.30;26.90;;;;;;5114292;28;20211;-59
2020/12/23 03:18:31;;;;;;;1.80;1.60;;;19.30;26.90;;;;;;5113336;28;20165;-59
2020/12/23 03:20:57;;;;;;;1.50;1.35;;;19.30;26.80;;;;;;5114020;28;20160;-59
2020/12/23 03:23:22;;;;;;;1.50;1.40;;;19.30;26.80;;;;;;5113693;28;20603;-59
2020/12/23 03:25:48;;;;;;;2.00;1.47;;;19.30;26.80;;;;;;5095788;28;20551;-60
2020/12/23 03:28:13;;;;;;;1.50;1.40;;;19.30;26.80;;;;;;5114123;28;20652;-59
2020/12/23 03:30:39;;;;;;;2.33;1.50;;;19.30;26.80;;;;;;5095873;28;20176;-59
2020/12/23 03:33:04;;;;;;;2.30;1.53;;;19.30;26.80;;;;;;5113776;28;20161;-59
2020/12/23 03:35:30;;;;;;;1.63;1.53;;;19.30;26.80;;;;;;5113990;28;20176;-59
2020/12/23 03:37:56;;;;;;;1.90;1.80;;;19.40;26.90;;;;;;5113513;28;20605;-59
2020/12/23 03:40:21;;;;;;;1.60;1.50;;;19.40;26.90;;;;;;5113958;28;20165;-59
2020/12/23 03:42:47;;;;;;;1.50;1.40;;;19.30;26.80;;;;;;5095634;28;20623;-60
2020/12/23 03:45:13;;;;;;;1.40;1.30;;;19.30;26.80;;;;;;5113843;28;20608;-59
2020/12/23 03:47:38;;;;;;;2.10;1.90;;;19.30;26.80;;;;;;5113672;28;20169;-59
2020/12/23 03:50:05;;;;;;;1.67;1.57;;;19.40;26.90;;;;;;5113935;28;20181;-58
2020/12/23 03:52:31;;;;;;;2.05;1.58;;;19.40;26.90;;;;;;5113270;28;20248;-59
2020/12/23 03:54:57;;;;;;;1.50;1.40;;;19.40;26.90;;;;;;5113871;28;20153;-59
2020/12/23 03:57:23;;;;;;;2.60;1.83;;;19.30;26.80;;;;;;5113598;28;20177;-59
2020/12/23 03:59:48;;;;;;;1.60;1.50;;;19.40;26.80;;;;;;5113892;28;20157;-58
2020/12/23 04:02:14;;;;;;;1.37;1.27;;;19.30;26.80;;;;;;5113560;28;20176;-59
2020/12/23 04:04:39;;;;;;;3.10;1.80;;;19.30;26.80;;;;;;5113787;28;20168;-59
2020/12/23 04:07:05;;;;;;;1.97;1.63;;;19.30;26.80;;;;;;5113138;28;20162;-59
2020/12/23 04:09:31;;;;;;;2.13;1.93;;;19.40;26.80;;;;;;5113673;28;20674;-59
2020/12/23 04:11:56;;;;;;;2.00;1.80;;;19.30;26.80;;;;;;5113667;28;20612;-59
2020/12/23 04:14:22;;;;;;;1.87;1.37;;;19.40;26.80;;;;;;5113618;28;20628;-59
2020/12/23 04:16:48;;;;;;;1.37;1.27;;;19.40;26.80;;;;;;5113618;28;20655;-59
2020/12/23 04:19:13;;;;;;;1.67;1.57;;;19.40;26.90;;;;;;5095202;28;20272;-59
2020/12/23 04:21:39;;;;;;;1.73;1.63;;;19.30;26.80;;;;;;5113582;28;20172;-58
2020/12/23 04:24:05;;;;;;;1.47;1.37;;;19.40;26.80;;;;;;5113020;28;20164;-58
2020/12/23 04:26:30;;;;;;;2.13;1.40;;;19.40;26.80;;;;;;5113450;28;20538;-59
2020/12/23 04:28:56;;;;;;;2.03;1.87;;;19.40;26.80;;;;;;5113437;28;20439;-59
2020/12/23 04:31:21;;;;;;;1.57;1.47;;;19.40;26.80;;;;;;5115914;28;20239;-58
2020/12/23 04:33:47;;;;;;;1.30;1.20;;;19.40;26.80;;;;;;5098897;28;20165;-59
2020/12/23 04:36:13;;;;;;;1.50;1.40;;;19.40;26.80;;;;;;5117136;28;20561;-59
2020/12/23 04:38:39;;;;;;;1.60;1.50;;;19.40;26.80;;;;;;5116849;28;20193;-59
2020/12/23 04:41:04;;;;;;;1.80;1.30;;;19.40;26.80;;;;;;5099307;28;20502;-59
2020/12/23 04:43:30;;;;;;;2.30;2.03;;;19.40;26.80;;;;;;5117044;28;20384;-59
2020/12/23 04:45:57;;;;;;;1.90;1.70;;;19.40;26.80;;;;;;5117007;28;20226;-59
2020/12/23 04:48:26;;;;;;;1.63;1.52;;;19.40;26.80;;;;;;5116632;28;20444;-59
2020/12/23 04:50:56;;;;;;;1.30;1.20;;;19.40;26.80;;;;;;5098445;28;20655;-59
2020/12/23 04:53:23;;;;;;;1.75;1.65;;;19.40;26.80;;;;;;5098034;28;20162;-59
2020/12/23 04:55:49;;;;;;;2.15;1.30;;;19.40;26.80;;;;;;5116857;28;20161;-59
2020/12/23 04:58:15;;;;;;;1.77;1.50;;;19.40;26.80;;;;;;5116595;28;20234;-59
2020/12/23 05:00:40;;;;;;;1.53;1.33;;;19.40;26.80;;;;;;5116780;28;20526;-59
2020/12/23 05:03:06;;;;;;;2.57;1.60;;;19.40;26.80;;;;;;5116707;28;20150;-59
2020/12/23 05:05:34;;;;;;;1.83;1.57;;;19.40;26.80;;;;;;5116502;28;20189;-59
2020/12/23 05:08:00;;;;;;;2.13;1.88;;;19.40;26.80;;;;;;5116089;28;20180;-60
2020/12/23 05:10:29;;;;;;;1.50;1.40;;;19.40;26.80;;;;;;5098396;28;20620;-59
2020/12/23 05:12:57;;;;;;;1.40;1.25;;;19.40;26.80;;;;;;5098271;28;20253;-59
2020/12/23 05:15:24;;;;;;;1.58;1.48;;;19.40;26.80;;;;;;5116396;28;20162;-59
2020/12/23 05:17:50;;;;;;;2.00;1.52;;;19.40;26.80;;;;;;5116352;28;20264;-60
2020/12/23 05:20:16;;;;;;;1.65;1.55;;;19.40;26.80;;;;;;5116434;28;20536;-59
2020/12/23 05:22:51;;;;;;;1.52;1.42;;;19.40;26.80;;;;;;5115767;28;20572;-59
2020/12/23 05:25:18;;;;;;;1.75;1.40;;;19.40;26.80;;;;;;5116311;28;20149;-60
2020/12/23 05:27:47;;;;;;;1.65;1.40;;;19.40;26.80;;;;;;5098013;28;20696;-59
2020/12/23 05:30:13;;;;;;;1.60;1.50;;;19.40;26.80;;;;;;5116070;28;20187;-60
2020/12/23 05:32:41;;;;;;;1.52;1.42;;;19.40;26.80;;;;;;5116069;28;20161;-59
2020/12/23 05:35:06;;;;;;;1.50;1.40;;;19.40;26.80;;;;;;5097713;28;20161;-59
2020/12/23 05:37:32;;;;;;;1.70;1.60;;;19.40;26.80;;;;;;5115459;28;20168;-59
2020/12/23 05:39:59;;;;;;;1.48;1.35;;;19.40;26.80;;;;;;5116086;28;20153;-59
2020/12/23 05:42:26;;;;;;;1.75;1.60;;;19.40;26.80;;;;;;5114894;28;20156;-59
2020/12/23 05:44:55;;;;;;;2.03;1.83;;;19.40;26.90;;;;;;5115800;28;20158;-59
2020/12/23 05:47:23;;;;;;;1.70;1.55;;;19.40;26.80;;;;;;5097532;28;20203;-59
2020/12/23 05:49:50;;;;;;;1.55;1.30;;;19.40;26.80;;;;;;5115743;28;20185;-59
2020/12/23 05:52:21;;;;;;;1.25;1.15;;;19.40;26.80;;;;;;5115189;28;20225;-59
2020/12/23 05:54:51;;;;;;;1.60;1.50;;;19.40;26.80;;;;;;5115823;28;20539;-59
2020/12/23 05:57:17;;;;;;;1.55;1.45;;;19.40;26.90;;;;;;5115375;28;20169;-59
2020/12/23 05:59:43;;;;;;;1.20;1.10;;;19.40;26.80;;;;;;5115618;28;20560;-59
2020/12/23 06:02:14;;;;;;;1.60;1.50;;;19.40;26.90;;;;;;5115368;28;20236;-59
2020/12/23 06:04:44;;;;;;;1.95;1.58;;;19.40;27.40;;;;;;5115419;28;20244;-60
2020/12/23 06:07:11;;;;;;;1.73;1.50;;;19.40;26.90;;;;;;5114851;28;20165;-59
2020/12/23 06:09:47;;;;;;;1.80;1.48;;;19.40;26.90;;;;;;5115333;28;20224;-58
2020/12/23 06:12:17;;;;;;;1.48;1.38;;;19.40;26.90;;;;;;5115188;28;20159;-59
2020/12/23 06:15:15;;;;;;;1.48;1.38;;;19.40;26.90;;;;;;5096762;28;20628;-59
2020/12/23 06:17:45;;;;;;;1.55;1.45;;;19.30;26.80;;;;;;5114556;28;20180;-60
2020/12/23 06:20:11;;;;;;;1.40;1.27;;;19.40;27.40;;;;;;5114973;28;20190;-59
2020/12/23 06:22:40;;;;;;;1.20;1.10;;;19.40;26.90;;;;;;5115103;28;20240;-59
2020/12/23 06:25:06;;;;;;;1.65;1.55;;;19.40;26.90;;;;;;5114985;28;20244;-59
2020/12/23 06:27:33;;;;;;;1.60;1.50;;;19.40;26.90;;;;;;5096510;28;20241;-59
2020/12/23 06:29:59;;;;;;;1.52;1.42;;;19.40;26.90;;;;;;5115046;28;20193;-59
2020/12/23 06:32:25;;;;;;;1.35;1.25;;;19.30;26.80;;;;;;5114815;28;20180;-59
2020/12/23 06:35:03;;;;;;;1.42;1.33;;;19.40;26.90;;;;;;5114859;28;20145;-59
2020/12/23 06:37:33;;;;;;;1.67;1.50;;;19.40;26.90;;;;;;5114274;28;20201;-58
2020/12/23 06:40:06;;;;;;;1.50;1.40;;;19.40;26.90;;;;;;5114917;28;20218;-60
2020/12/23 06:42:31;;;;;;;1.80;1.70;;;19.40;26.90;;;;;;5114571;28;20170;-59
2020/12/23 06:45:07;;;;;;;1.40;1.30;;;19.40;26.90;;;;;;5114803;28;20278;-58
2020/12/23 06:47:35;;;;;;;1.58;1.48;;;19.40;26.90;;;;;;5114535;28;20175;-59
2020/12/23 06:50:02;;;;;;;1.30;1.20;;;19.40;26.90;;;;;;5114626;28;20192;-59
2020/12/23 06:52:32;;;;;;;1.42;1.33;;;19.40;26.90;;;;;;5114175;28;20204;-59
2020/12/23 06:55:14;;;;;;;1.40;1.30;;;19.40;26.90;;;;;;5114568;28;20604;-59
2020/12/23 06:57:40;;;;;;;1.40;1.30;;;19.40;26.90;;;;;;5114107;28;20264;-59
2020/12/23 07:00:24;;;;;;;1.27;1.17;;;19.40;26.90;;;;;;5114377;28;20181;-59
2020/12/23 07:02:51;;;;;;;1.85;1.50;;;19.40;26.90;;;;;;5114404;28;20153;-60
2020/12/23 07:05:22;;;;;;;1.50;1.40;;;19.40;26.90;;;;;;5130181;27;20271;-59
2020/12/23 07:07:56;;;;;;;1.60;1.50;;;19.40;26.90;;;;;;5113725;28;20164;-59
2020/12/23 07:10:27;;;;;;;1.65;1.55;;;19.40;26.90;;;;;;5113807;28;20283;-59
2020/12/23 07:13:09;;;;;;;1.52;1.30;;;19.40;26.90;;;;;;5095812;28;20165;-59
2020/12/23 07:15:42;;;;;;;1.30;1.20;;;19.40;26.90;;;;;;5114523;28;20169;-59
2020/12/23 07:18:12;;;;;;;1.45;1.35;;;19.40;26.90;;;;;;5097146;28;20179;-59
2020/12/23 07:20:45;;;;;;;1.60;1.42;;;19.40;27.50;;;;;;5113938;28;20161;-59
2020/12/23 07:23:13;;;;;;;1.50;1.33;;;19.40;26.90;;;;;;5113244;28;20256;-59
2020/12/23 07:25:42;;;;;;;1.65;1.42;;;19.40;26.90;;;;;;5113937;28;20151;-59
2020/12/23 07:28:09;;;;;;;1.60;1.48;;;19.40;26.90;;;;;;5113766;28;20149;-59
2020/12/23 07:30:37;;;;;;;1.90;1.70;;;19.40;26.90;;;;;;5113917;28;20145;-59
2020/12/23 07:33:12;;;;;;;1.42;1.20;;;19.40;26.90;;;;;;5113849;28;20184;-59
2020/12/23 07:35:39;;;;;;;2.60;1.75;;;19.40;26.90;;;;;;5114229;28;20165;-59
2020/12/23 07:38:06;;;;;;;1.42;1.33;;;19.40;26.90;;;;;;5095210;28;20153;-59
2020/12/23 07:40:34;;;;;;;1.20;1.10;;;19.40;26.90;;;;;;5113671;28;20298;-59
2020/12/23 07:43:00;;;;;;;1.40;1.30;;;19.40;26.90;;;;;;5113609;28;20157;-59
2020/12/23 07:45:28;;;;;;;1.50;1.40;;;19.40;26.90;;;;;;5113724;28;20157;-59
2020/12/23 07:48:06;;;;;;;1.10;1.00;;;19.40;26.90;;;;;;5113651;28;20153;-59
2020/12/23 07:50:37;;;;;;;1.30;1.20;;;19.40;26.90;;;;;;5113646;28;20631;-59
2020/12/23 07:53:12;;;;;;;1.42;1.30;;;19.40;27.40;;;;;;5113082;28;20164;-59
2020/12/23 07:55:39;;;;;;;1.70;1.60;;;19.40;26.90;;;;;;5095038;28;20694;-59
2020/12/23 07:58:05;;;;;;;1.50;1.40;;;19.40;26.90;;;;;;5113457;28;20172;-59
2020/12/23 08:00:37;;;;;;;1.25;1.15;;;19.40;26.90;;;;;;5129271;28;20168;-59
2020/12/23 08:03:09;;;;;;;1.70;1.60;;;19.40;26.90;;;;;;5115224;28;20172;-61
2020/12/23 08:05:36;;;;;;;1.33;1.23;;;19.40;26.90;;;;;;5116687;28;20149;-59
2020/12/23 08:08:02;;;;;;;1.90;1.38;;;19.40;26.90;;;;;;5117349;28;20164;-59
2020/12/23 08:10:27;;;;;;;1.60;1.50;;;19.40;26.90;;;;;;5117383;28;20185;-60
2020/12/23 08:12:58;;;;;;;1.40;1.23;;;19.40;26.90;;;;;;5117500;28;20162;-60
2020/12/23 08:15:25;;;;;;;1.42;1.33;;;19.40;26.90;;;;;;5117329;28;20164;-59
2020/12/23 08:18:12;;;;;;;1.60;1.50;;;19.40;26.80;;;;;;5117713;28;20161;-60
2020/12/23 08:20:38;;;;;;;1.35;1.25;;;19.40;26.80;;;;;;5117492;28;20157;-60
2020/12/23 08:23:03;;;;;;;1.50;1.40;;;19.40;26.80;;;;;;5116900;28;20153;-59
2020/12/23 08:25:30;;;;;;;1.60;1.50;;;19.40;26.80;;;;;;5117275;28;20580;-60
2020/12/23 08:27:58;;;;;;;1.77;1.67;;;19.40;26.80;;;;;;5117227;28;20157;-60
2020/12/23 08:30:28;;;;;;;1.65;1.55;;;19.40;26.80;;;;;;5117158;28;20193;-60
2020/12/23 08:33:10;;;;;;;1.75;1.25;;;19.40;26.80;;;;;;5117015;28;20149;-59
2020/12/23 08:35:44;;;;;;;2.10;1.50;;;19.40;26.70;;;;;;5117016;28;20230;-60
2020/12/23 08:38:20;;;;;;;1.73;1.40;;;19.40;26.70;;;;;;5116493;28;20153;-60
2020/12/23 08:40:51;;;;;;;1.63;1.52;;;19.40;26.70;;;;;;5117066;28;20153;-59
2020/12/23 08:43:30;;;;;;;1.20;1.10;;;19.40;26.60;;;;;;5098849;28;20219;-59
2020/12/23 08:45:59;;;;;;;1.50;1.40;;;19.40;26.70;;;;;;5116937;28;20179;-60
2020/12/23 08:48:28;;;;;;;1.40;1.30;;;19.50;26.70;;;;;;5117066;28;20156;-59
2020/12/23 08:50:56;;;;;;;1.42;1.33;;;19.50;26.70;;;;;;5091336;28;20218;-62
2020/12/23 08:53:52;;;;;;;1.33;1.23;;;19.50;26.60;;;;;;5075450;28;20158;-60
2020/12/23 08:56:33;;;;;;;1.20;1.10;;;19.50;26.60;;;;;;5075017;28;20232;-60
2020/12/23 08:59:00;;;;;;;1.20;1.10;;;19.50;26.60;;;;;;5076015;28;20233;-62
2020/12/23 09:01:28;;;;;;;0.90;0.90;;;19.50;26.50;;;;;;5075776;28;20233;-59
2020/12/23 09:04:09;;;;;;;1.20;1.10;;;19.50;26.50;;;;;;5074644;28;20154;-60
2020/12/23 09:06:39;;;;;;;1.30;1.20;;;19.50;26.50;;;;;;5108515;28;20183;-60
2020/12/23 09:09:21;;;;;;;1.35;1.25;;;19.60;26.50;;;;;;5075073;28;20205;-60
2020/12/23 09:11:52;;;;;;;1.10;1.00;;;19.60;26.50;;;;;;5075836;28;20154;-61
2020/12/23 09:14:17;;;;;;;1.67;1.40;;;19.60;26.50;;;;;;5075724;28;20233;-60
2020/12/23 09:17:13;;;;;;;0.90;0.90;;;19.60;26.50;;;;;;5075566;28;20639;-60
2020/12/23 09:20:02;;;;;;;1.23;1.13;;;19.60;26.40;;;;;;5075901;28;20146;-59
2020/12/23 09:22:30;;;;;;;1.30;1.20;;;19.60;26.50;;;;;;5074980;28;20150;-59
2020/12/23 09:25:19;;;;;;;0.93;0.90;;;19.60;26.40;;;;;;5075603;28;20151;-59
2020/12/23 09:27:47;;;;;;;1.42;1.33;;;19.60;26.40;;;;;;5075616;28;20194;-59
2020/12/23 09:30:13;;;;;;;1.67;1.35;;;19.60;26.40;;;;;;5075419;28;20182;-59
2020/12/23 09:32:53;;;;;;;1.75;1.30;;;19.60;26.40;;;;;;5074023;28;20158;-59
2020/12/23 09:35:22;;;;;;;1.40;1.30;;;19.50;26.40;;;;;;5075315;28;20150;-60
2020/12/23 09:37:48;;;;;;;1.52;1.33;;;19.60;26.50;;;;;;5074477;28;20605;-60
2020/12/23 09:40:15;;;;;;;1.50;1.40;;;19.60;26.50;;;;;;5075228;28;20194;-59
2020/12/23 09:42:41;;;;;;;1.50;1.40;;;19.60;26.40;;;;;;5075318;28;20154;-59
2020/12/23 09:45:08;;;;;;;1.30;1.20;;;19.60;26.50;;;;;;5075269;28;20162;-59
2020/12/23 09:47:34;;;;;;;1.40;1.30;;;19.60;26.40;;;;;;5074997;28;20435;-59
2020/12/23 09:50:03;;;;;;;1.45;1.35;;;19.60;26.40;;;;;;5075235;28;20218;-60
2020/12/23 09:52:29;;;;;;;1.50;1.40;;;19.60;26.40;;;;;;5108145;28;20219;-59
2020/12/23 09:54:55;;;;;;;1.47;1.33;;;19.60;26.30;;;;;;5115564;28;20224;-61
2020/12/23 09:57:20;;;;;;;2.10;1.40;;;19.60;26.30;;;;;;5115353;28;20423;-60
2020/12/23 09:59:46;;;;;;;1.70;1.47;;;19.60;26.30;;;;;;5115532;28;20160;-59
2020/12/23 10:02:12;;;;;;;1.33;1.23;;;19.60;26.30;;;;;;5115436;28;20440;-59
2020/12/23 10:04:37;;;;;;;2.30;1.43;;;19.60;26.30;;;;;;5097713;28;20609;-59
2020/12/23 10:07:03;;;;;;;1.70;1.20;;;19.60;26.30;;;;;;5114744;28;20624;-59
2020/12/23 10:09:29;;;;;;;1.53;1.40;;;19.60;26.30;;;;;;5096909;28;20200;-60
2020/12/23 10:11:54;;;;;;;3.10;1.60;;;19.60;26.30;;;;;;5097308;28;20460;-59
2020/12/23 10:14:20;;;;;;;1.33;1.23;;;19.60;26.30;;;;;;5096951;28;20171;-60
2020/12/23 10:16:46;;;;;;;1.43;1.33;;;19.60;26.30;;;;;;5115094;28;20179;-60
2020/12/23 10:19:11;;;;;;;1.77;1.20;;;19.70;26.30;;;;;;5114844;28;20163;-60
2020/12/23 10:21:37;;;;;;;1.20;1.10;;;19.70;26.30;;;;;;5097034;28;20167;-60
2020/12/23 10:24:03;;;;;;;1.10;1.00;;;19.70;26.30;;;;;;5095982;28;20237;-58
2020/12/23 10:26:28;;;;;;;1.60;1.20;;;19.70;26.30;;;;;;5114873;28;20616;-59
2020/12/23 10:28:54;;;;;;;2.00;1.70;;;19.70;26.20;;;;;;5114040;28;20644;-59
2020/12/23 10:31:20;;;;;;;1.50;1.40;;;19.70;26.10;;;;;;5114913;28;20214;-60
2020/12/23 10:33:45;;;;;;;1.00;0.90;;;19.70;26.10;;;;;;5096371;28;20157;-60
2020/12/23 10:36:16;;;;;;;1.27;1.17;;;19.80;26.10;;;;;;5114550;28;20224;-59
2020/12/23 10:38:42;;;;;;;1.30;1.10;;;19.80;26.00;;;;;;5096631;28;20157;-59
2020/12/23 10:41:08;;;;;;;1.52;1.42;;;19.80;26.00;;;;;;5096024;28;20202;-58
2020/12/23 10:43:34;;;;;;;1.50;1.40;;;19.90;26.00;;;;;;5114563;28;20675;-59
2020/12/23 10:46:00;;;;;;;1.40;1.30;;;19.90;25.90;;;;;;5114776;28;20236;-59
2020/12/23 10:48:25;;;;;;;1.40;1.30;;;19.90;25.90;;;;;;5114275;28;20189;-60
2020/12/23 10:50:51;;;;;;;1.30;1.20;;;19.90;25.80;;;;;;5114336;28;20663;-60
2020/12/23 10:53:17;;;;;;;1.20;1.10;;;19.90;25.80;;;;;;5114027;28;20149;-60
2020/12/23 10:55:42;;;;;;;1.40;1.10;;;19.90;25.70;;;;;;5114344;28;20606;-58
2020/12/23 10:58:08;;;;;;;1.57;1.47;;;19.90;25.70;;;;;;5114472;28;20230;-59
2020/12/23 11:00:34;;;;;;;3.67;1.53;;;19.90;25.70;;;;;;5113099;28;20169;-60
2020/12/23 11:03:00;;;;;;;1.40;1.30;;;19.90;25.70;;;;;;5113876;28;20176;-62
2020/12/23 11:05:26;;;;;;;1.87;1.73;;;20.00;25.80;;;;;;5114260;28;20601;-59
2020/12/23 11:07:53;;;;;;;1.57;1.30;;;19.90;25.70;;;;;;5112475;28;20164;-59
2020/12/23 11:10:20;;;;;;;1.45;1.13;;;19.90;25.70;;;;;;5112641;28;20197;-59
2020/12/23 11:12:48;;;;;;;1.52;1.42;;;20.00;25.80;;;;;;5113980;28;20240;-60
2020/12/23 11:15:15;;;;;;;1.88;1.38;;;19.90;25.70;;;;;;5114117;28;20141;-59
2020/12/23 11:17:40;;;;;;;1.50;1.25;;;20.00;25.80;;;;;;5113968;28;20161;-60
2020/12/23 11:20:06;;;;;;;1.80;1.70;;;19.90;25.70;;;;;;5113773;28;20172;-59
2020/12/23 11:22:32;;;;;;;1.90;1.70;;;19.90;25.70;;;;;;5113619;28;20192;-59
2020/12/23 11:24:57;;;;;;;1.40;1.30;;;19.90;25.70;;;;;;5114185;28;20543;-60
2020/12/23 11:27:23;;;;;;;1.37;1.27;;;19.90;25.70;;;;;;5095630;28;20260;-59
2020/12/23 11:29:48;;;;;;;1.60;1.50;;;19.90;25.80;;;;;;5113935;28;20275;-59
2020/12/23 11:32:14;;;;;;;2.40;1.50;;;19.90;25.80;;;;;;5095796;28;20223;-59
2020/12/23 11:34:40;;;;;;;1.67;1.43;;;19.90;25.80;;;;;;5113781;28;20157;-60
2020/12/23 11:37:06;;;;;;;1.53;1.40;;;19.90;25.80;;;;;;5113321;28;20184;-59
2020/12/23 11:39:32;;;;;;;1.55;1.45;;;19.90;25.90;;;;;;5113677;28;20512;-59
2020/12/23 11:42:00;;;;;;;1.52;1.42;;;19.90;25.90;;;;;;5117578;28;20493;-60
2020/12/23 11:44:27;;;;;;;1.60;1.50;;;19.90;25.90;;;;;;5099952;28;20260;-59
2020/12/23 11:46:53;;;;;;;1.67;1.40;;;19.90;26.40;;;;;;5118138;28;20165;-59
2020/12/23 11:49:19;;;;;;;1.53;1.43;;;19.90;26.50;;;;;;5099688;28;20525;-59
2020/12/23 11:51:49;;;;;;;1.40;1.30;;;19.90;25.90;;;;;;5099710;28;20450;-60
2020/12/23 11:54:16;;;;;;;1.70;1.60;;;19.90;25.90;;;;;;5118036;28;20158;-59
2020/12/23 11:56:46;;;;;;;2.00;1.67;;;19.90;25.90;;;;;;5137773;27;20175;-59
2020/12/23 11:59:16;;;;;;;1.80;1.30;;;19.90;25.90;;;;;;5138259;27;20160;-59
2020/12/23 12:01:43;;;;;;;1.80;1.65;;;19.90;25.90;;;;;;5138372;27;20149;-59
2020/12/23 12:04:11;;;;;;;1.77;1.50;;;19.90;25.90;;;;;;5138422;27;20153;-59
2020/12/23 12:06:37;;;;;;;1.60;1.50;;;19.90;25.90;;;;;;5138316;27;20195;-59
2020/12/23 12:09:04;;;;;;;2.10;1.50;;;19.90;25.90;;;;;;5137539;27;20180;-59
2020/12/23 12:11:30;;;;;;;1.75;1.50;;;19.90;25.90;;;;;;5119710;27;20338;-59
2020/12/23 12:13:55;;;;;;;3.50;1.60;;;19.90;26.00;;;;;;5138028;27;20452;-61
2020/12/23 12:16:21;;;;;;;1.30;1.20;;;19.90;26.00;;;;;;5138080;27;20604;-59
2020/12/23 12:18:48;;;;;;;1.20;1.10;;;;;;;;;;5138153;27;20149;-59
2020/12/23 12:21:14;;;;;;;1.30;1.20;;;19.90;25.50;;;;;;5137783;27;20626;-60
2020/12/23 12:23:40;;;;;;;1.40;1.30;;;19.90;26.00;;;;;;5137756;27;20153;-59
2020/12/23 12:26:05;;;;;;;1.50;1.40;;;19.90;25.90;;;;;;5138120;27;20623;-59
2020/12/23 12:28:31;;;;;;;1.40;1.30;;;19.90;26.00;;;;;;5096754;28;20396;-59
2020/12/23 12:30:57;;;;;;;1.40;1.30;;;19.90;25.90;;;;;;5096955;28;20193;-59
2020/12/23 12:33:23;;;;;;;1.93;1.57;;;19.90;25.90;;;;;;5096913;28;20157;-59
2020/12/23 12:35:48;;;;;;;1.60;1.50;;;19.90;25.90;;;;;;5078514;28;20219;-60
2020/12/23 12:38:14;;;;;;;1.23;1.10;;;19.90;25.90;;;;;;5096350;28;20439;-59
2020/12/23 12:40:40;;;;;;;1.60;1.47;;;19.90;25.90;;;;;;5078762;28;20394;-59
2020/12/23 12:43:06;;;;;;;1.15;1.05;;;19.90;25.90;;;;;;5078761;28;20273;-59
2020/12/23 12:45:35;;;;;;;1.70;1.40;;;19.90;25.90;;;;;;5096621;28;20584;-59
2020/12/23 12:48:01;;;;;;;1.63;1.13;;;19.90;25.90;;;;;;5096367;28;20154;-58
2020/12/23 12:50:26;;;;;;;2.10;2.00;;;19.90;25.90;;;;;;5096552;28;20193;-59